createdAt,value
2023-02-11T00:00:32.252Z,996.238779172
2023-02-11T00:01:32.340Z,996.137187808
2023-02-11T00:02:32.317Z,996.238779172
2023-02-11T00:03:32.402Z,996.4080981120001
2023-02-11T00:04:32.281Z,996.306506748
2023-02-11T00:05:32.259Z,996.306506748
2023-02-11T00:06:32.268Z,996.306506748
2023-02-11T00:07:32.331Z,996.4080981120001
2023-02-11T00:08:40.198Z,996.306506748
2023-02-11T00:09:44.200Z,996.306506748
2023-02-11T00:10:48.457Z,995.93400508
2023-02-11T00:11:52.230Z,996.137187808
2023-02-11T00:12:56.213Z,996.137187808
2023-02-11T00:14:00.182Z,996.137187808
2023-02-11T00:15:04.218Z,996.137187808
2023-02-11T00:16:08.192Z,996.238779172
2023-02-11T00:17:12.206Z,996.035596444
2023-02-11T00:18:16.178Z,996.035596444
2023-02-11T00:19:20.229Z,996.137187808
2023-02-11T00:20:24.186Z,996.035596444
2023-02-11T00:21:28.214Z,996.137187808
2023-02-11T00:22:31.269Z,996.238779172
2023-02-11T00:23:31.246Z,996.137187808
2023-02-11T00:24:31.217Z,995.93400508
2023-02-11T00:25:31.262Z,996.035596444
2023-02-11T00:26:31.248Z,996.238779172
2023-02-11T00:27:31.333Z,995.93400508
2023-02-11T00:28:31.355Z,996.137187808
2023-02-11T00:29:31.265Z,996.035596444
2023-02-11T00:30:31.288Z,996.035596444
2023-02-11T00:31:31.338Z,996.035596444
2023-02-11T00:32:31.240Z,995.832413716
2023-02-11T00:33:31.314Z,995.93400508
2023-02-11T00:34:31.274Z,995.93400508
2023-02-11T00:35:31.248Z,996.035596444
2023-02-11T00:36:31.220Z,995.93400508
2023-02-11T00:37:31.241Z,996.137187808
2023-02-11T00:38:31.256Z,996.035596444
2023-02-11T00:39:31.268Z,996.137187808
2023-02-11T00:40:31.295Z,996.137187808
2023-02-11T00:41:31.284Z,995.93400508
2023-02-11T00:42:31.268Z,995.93400508
2023-02-11T00:43:31.341Z,996.035596444
2023-02-11T00:44:31.254Z,995.7308223519999
2023-02-11T00:45:31.240Z,995.93400508
2023-02-11T00:46:31.272Z,995.832413716
2023-02-11T00:47:31.250Z,995.7308223519999
2023-02-11T00:48:31.240Z,995.6292309879999
2023-02-11T00:49:31.231Z,995.527639624
2023-02-11T00:50:31.231Z,996.035596444
2023-02-11T00:51:31.255Z,995.832413716
2023-02-11T00:52:31.232Z,996.035596444
2023-02-11T00:53:31.234Z,995.93400508
2023-02-11T00:54:31.305Z,995.7308223519999
2023-02-11T00:55:31.312Z,995.832413716
2023-02-11T00:56:31.274Z,995.832413716
2023-02-11T00:57:31.269Z,995.93400508
2023-02-11T00:58:31.262Z,996.035596444
2023-02-11T00:59:31.264Z,995.832413716
2023-02-11T01:00:31.247Z,995.7308223519999
2023-02-11T01:01:31.297Z,996.035596444
2023-02-11T01:02:31.231Z,995.6292309879999
2023-02-11T01:03:31.249Z,995.832413716
2023-02-11T01:04:31.239Z,995.527639624
2023-02-11T01:05:31.264Z,995.7308223519999
2023-02-11T01:06:31.239Z,995.93400508
2023-02-11T01:07:31.302Z,995.832413716
2023-02-11T01:08:31.224Z,995.7308223519999
2023-02-11T01:09:31.235Z,995.832413716
2023-02-11T01:10:31.229Z,995.832413716
2023-02-11T01:11:31.227Z,995.7308223519999
2023-02-11T01:12:31.235Z,995.7308223519999
2023-02-11T01:13:31.244Z,995.7308223519999
2023-02-11T01:14:31.230Z,995.7308223519999
2023-02-11T01:15:31.267Z,995.832413716
2023-02-11T01:16:31.235Z,996.035596444
2023-02-11T01:17:31.294Z,995.6292309879999
2023-02-11T01:18:31.220Z,995.832413716
2023-02-11T01:19:31.284Z,995.6292309879999
2023-02-11T01:20:31.224Z,995.832413716
2023-02-11T01:21:31.260Z,995.93400508
2023-02-11T01:22:31.252Z,995.832413716
2023-02-11T01:23:31.273Z,995.832413716
2023-02-11T01:24:31.249Z,995.7308223519999
2023-02-11T01:25:31.256Z,995.7308223519999
2023-02-11T01:26:31.231Z,995.6292309879999
2023-02-11T01:27:31.249Z,995.7308223519999
2023-02-11T01:28:31.365Z,995.6292309879999
2023-02-11T01:29:31.245Z,995.832413716
2023-02-11T01:30:31.237Z,995.832413716
2023-02-11T01:31:31.494Z,995.7308223519999
2023-02-11T01:32:31.220Z,995.7308223519999
2023-02-11T01:33:31.254Z,995.7308223519999
2023-02-11T01:34:31.223Z,995.832413716
2023-02-11T01:35:31.251Z,995.7308223519999
2023-02-11T01:36:31.241Z,995.527639624
2023-02-11T01:37:31.257Z,995.527639624
2023-02-11T01:38:31.233Z,995.4260482599999
2023-02-11T01:39:31.275Z,995.527639624
2023-02-11T01:40:31.380Z,995.6292309879999
2023-02-11T01:41:31.399Z,995.4260482599999
2023-02-11T01:42:31.381Z,995.6292309879999
2023-02-11T01:43:31.412Z,995.527639624
2023-02-11T01:44:31.351Z,995.4260482599999
2023-02-11T01:45:31.351Z,995.527639624
2023-02-11T01:46:31.449Z,995.6292309879999
2023-02-11T01:47:31.398Z,995.7308223519999
2023-02-11T01:48:31.399Z,995.527639624
2023-02-11T01:49:31.481Z,995.7308223519999
2023-02-11T01:50:31.429Z,995.7308223519999
2023-02-11T01:51:31.404Z,995.7308223519999
2023-02-11T01:52:31.437Z,995.93400508
2023-02-11T01:53:31.350Z,995.832413716
2023-02-11T01:54:31.332Z,995.832413716
2023-02-11T01:55:31.510Z,995.832413716
2023-02-11T01:56:31.217Z,995.527639624
2023-02-11T01:57:31.269Z,995.7308223519999
2023-02-11T01:58:31.229Z,995.6292309879999
2023-02-11T01:59:31.273Z,995.527639624
2023-02-11T02:00:31.239Z,995.832413716
2023-02-11T02:01:31.292Z,995.832413716
2023-02-11T02:02:31.222Z,995.7308223519999
2023-02-11T02:03:31.258Z,995.6292309879999
2023-02-11T02:04:31.229Z,995.527639624
2023-02-11T02:05:31.406Z,995.93400508
2023-02-11T02:06:31.230Z,995.7308223519999
2023-02-11T02:07:31.289Z,995.832413716
2023-02-11T02:08:31.235Z,995.527639624
2023-02-11T02:09:31.292Z,995.527639624
2023-02-11T02:10:31.221Z,995.527639624
2023-02-11T02:11:31.248Z,995.527639624
2023-02-11T02:12:31.231Z,995.4260482599999
2023-02-11T02:13:31.290Z,995.4260482599999
2023-02-11T02:14:31.232Z,995.527639624
2023-02-11T02:15:31.263Z,995.4260482599999
2023-02-11T02:16:31.220Z,995.7308223519999
2023-02-11T02:17:31.246Z,995.4260482599999
2023-02-11T02:18:31.301Z,995.6292309879999
2023-02-11T02:19:31.247Z,995.527639624
2023-02-11T02:20:31.212Z,995.4260482599999
2023-02-11T02:21:31.245Z,995.4260482599999
2023-02-11T02:22:31.209Z,995.6292309879999
2023-02-11T02:23:31.328Z,995.4260482599999
2023-02-11T02:24:31.247Z,995.527639624
2023-02-11T02:25:31.230Z,995.6292309879999
2023-02-11T02:26:31.282Z,995.527639624
2023-02-11T02:27:31.241Z,995.527639624
2023-02-11T02:28:31.318Z,995.6292309879999
2023-02-11T02:29:31.215Z,995.6292309879999
2023-02-11T02:30:31.274Z,995.832413716
2023-02-11T02:31:31.290Z,995.93400508
2023-02-11T02:32:31.249Z,995.832413716
2023-02-11T02:33:31.235Z,995.6292309879999
2023-02-11T02:34:31.221Z,995.7308223519999
2023-02-11T02:35:31.264Z,995.7308223519999
2023-02-11T02:36:31.217Z,995.7308223519999
2023-02-11T02:37:31.247Z,995.7308223519999
2023-02-11T02:38:31.259Z,995.832413716
2023-02-11T02:39:31.229Z,995.7308223519999
2023-02-11T02:40:31.238Z,995.7308223519999
2023-02-11T02:41:31.206Z,996.035596444
2023-02-11T02:42:31.267Z,995.7308223519999
2023-02-11T02:43:31.247Z,995.7308223519999
2023-02-11T02:44:31.198Z,995.7308223519999
2023-02-11T02:45:31.243Z,995.832413716
2023-02-11T02:46:31.319Z,995.93400508
2023-02-11T02:47:31.244Z,996.035596444
2023-02-11T02:48:31.228Z,995.93400508
2023-02-11T02:49:31.221Z,995.832413716
2023-02-11T02:50:31.322Z,995.832413716
2023-02-11T02:51:31.231Z,995.7308223519999
2023-02-11T02:52:31.228Z,995.93400508
2023-02-11T02:53:31.260Z,995.93400508
2023-02-11T02:54:31.279Z,995.832413716
2023-02-11T02:55:31.237Z,995.7308223519999
2023-02-11T02:56:31.221Z,995.93400508
2023-02-11T02:57:31.284Z,995.832413716
2023-02-11T02:58:31.255Z,995.93400508
2023-02-11T02:59:31.230Z,995.832413716
2023-02-11T03:00:31.324Z,995.832413716
2023-02-11T03:01:31.252Z,995.93400508
2023-02-11T03:02:31.231Z,995.832413716
2023-02-11T03:03:31.349Z,996.035596444
2023-02-11T03:04:31.242Z,995.93400508
2023-02-11T03:05:31.265Z,995.93400508
2023-02-11T03:06:31.273Z,995.93400508
2023-02-11T03:07:31.241Z,996.137187808
2023-02-11T03:08:31.236Z,996.137187808
2023-02-11T03:09:31.220Z,995.93400508
2023-02-11T03:10:31.280Z,996.035596444
2023-02-11T03:11:31.337Z,995.93400508
2023-02-11T03:12:31.214Z,996.137187808
2023-02-11T03:13:31.239Z,995.832413716
2023-02-11T03:14:31.238Z,995.832413716
2023-02-11T03:15:31.237Z,996.137187808
2023-02-11T03:16:31.376Z,995.93400508
2023-02-11T03:17:31.255Z,995.832413716
2023-02-11T03:18:31.273Z,996.035596444
2023-02-11T03:19:31.273Z,996.035596444
2023-02-11T03:20:31.250Z,996.238779172
2023-02-11T03:21:31.232Z,996.238779172
2023-02-11T03:22:31.397Z,996.306506748
2023-02-11T03:23:31.323Z,996.238779172
2023-02-11T03:24:31.351Z,996.238779172
2023-02-11T03:25:31.238Z,996.4080981120001
2023-02-11T03:26:31.256Z,996.035596444
2023-02-11T03:27:31.303Z,996.238779172
2023-02-11T03:28:31.454Z,996.238779172
2023-02-11T03:29:31.209Z,996.238779172
2023-02-11T03:30:31.366Z,996.238779172
2023-02-11T03:31:31.640Z,996.306506748
2023-02-11T03:32:31.321Z,996.306506748
2023-02-11T03:33:31.288Z,996.4080981120001
2023-02-11T03:34:31.340Z,996.4080981120001
2023-02-11T03:35:31.366Z,996.137187808
2023-02-11T03:36:31.269Z,996.509689476
2023-02-11T03:37:31.219Z,996.4080981120001
2023-02-11T03:38:31.411Z,996.238779172
2023-02-11T03:39:31.226Z,996.238779172
2023-02-11T03:40:31.347Z,996.509689476
2023-02-11T03:41:31.370Z,996.4080981120001
2023-02-11T03:42:31.380Z,996.4080981120001
2023-02-11T03:43:31.262Z,996.509689476
2023-02-11T03:44:31.352Z,996.306506748
2023-02-11T03:45:31.373Z,996.4080981120001
2023-02-11T03:46:31.456Z,996.4080981120001
2023-02-11T03:47:31.314Z,996.509689476
2023-02-11T03:48:31.328Z,996.61128084
2023-02-11T03:49:31.221Z,996.61128084
2023-02-11T03:50:31.306Z,996.306506748
2023-02-11T03:51:31.235Z,996.4080981120001
2023-02-11T03:52:31.235Z,996.61128084
2023-02-11T03:53:31.212Z,996.509689476
2023-02-11T03:54:31.286Z,996.7128722040001
2023-02-11T03:55:31.226Z,996.61128084
2023-02-11T03:56:31.218Z,996.814463568
2023-02-11T03:57:31.226Z,996.61128084
2023-02-11T03:58:31.285Z,996.916054932
2023-02-11T03:59:31.244Z,996.61128084
2023-02-11T04:00:31.210Z,996.7128722040001
2023-02-11T04:01:31.287Z,996.61128084
2023-02-11T04:02:31.237Z,996.7128722040001
2023-02-11T04:03:31.288Z,996.916054932
2023-02-11T04:04:31.222Z,996.916054932
2023-02-11T04:05:31.238Z,997.0176462960001
2023-02-11T04:06:31.264Z,997.0176462960001
2023-02-11T04:07:31.217Z,997.0176462960001
2023-02-11T04:08:31.224Z,996.814463568
2023-02-11T04:09:31.263Z,997.220829024
2023-02-11T04:10:31.244Z,997.11923766
2023-02-11T04:11:31.225Z,997.0176462960001
2023-02-11T04:12:31.224Z,997.4240117520001
2023-02-11T04:13:31.189Z,997.11923766
2023-02-11T04:14:31.245Z,997.220829024
2023-02-11T04:15:31.212Z,997.0176462960001
2023-02-11T04:16:31.282Z,997.3224203880001
2023-02-11T04:17:31.241Z,997.3224203880001
2023-02-11T04:18:31.260Z,997.3224203880001
2023-02-11T04:19:31.237Z,997.3224203880001
2023-02-11T04:20:31.212Z,997.3224203880001
2023-02-11T04:21:31.231Z,997.3224203880001
2023-02-11T04:22:31.253Z,997.3224203880001
2023-02-11T04:23:31.303Z,997.4240117520001
2023-02-11T04:24:31.255Z,997.11923766
2023-02-11T04:25:31.266Z,997.3224203880001
2023-02-11T04:26:31.250Z,997.3224203880001
2023-02-11T04:27:31.254Z,997.4240117520001
2023-02-11T04:28:31.308Z,997.3224203880001
2023-02-11T04:29:31.225Z,997.3224203880001
2023-02-11T04:30:31.187Z,997.525603116
2023-02-11T04:31:31.260Z,997.4240117520001
2023-02-11T04:32:31.214Z,997.4240117520001
2023-02-11T04:33:31.255Z,997.6271944800001
2023-02-11T04:34:31.204Z,997.3224203880001
2023-02-11T04:35:31.292Z,997.525603116
2023-02-11T04:36:31.220Z,997.6271944800001
2023-02-11T04:37:31.229Z,997.6271944800001
2023-02-11T04:38:31.205Z,997.525603116
2023-02-11T04:39:31.234Z,997.525603116
2023-02-11T04:40:31.210Z,997.525603116
2023-02-11T04:41:31.215Z,997.4240117520001
2023-02-11T04:42:31.195Z,997.6271944800001
2023-02-11T04:43:31.255Z,997.6271944800001
2023-02-11T04:44:31.217Z,997.3224203880001
2023-02-11T04:45:31.230Z,997.7287858440001
2023-02-11T04:46:31.252Z,997.6271944800001
2023-02-11T04:47:31.258Z,997.525603116
2023-02-11T04:48:31.239Z,997.525603116
2023-02-11T04:49:31.245Z,997.6271944800001
2023-02-11T04:50:31.218Z,997.7287858440001
2023-02-11T04:51:31.231Z,997.525603116
2023-02-11T04:52:31.209Z,997.830377208
2023-02-11T04:53:31.274Z,997.830377208
2023-02-11T04:54:31.245Z,997.9319685720001
2023-02-11T04:55:31.232Z,997.830377208
2023-02-11T04:56:31.221Z,997.9319685720001
2023-02-11T04:57:31.245Z,998.0335599360001
2023-02-11T04:58:31.249Z,998.0335599360001
2023-02-11T04:59:31.266Z,997.830377208
2023-02-11T05:00:31.262Z,997.9319685720001
2023-02-11T05:01:31.286Z,998.1351513
2023-02-11T05:02:31.226Z,997.9319685720001
2023-02-11T05:03:31.252Z,997.830377208
2023-02-11T05:04:31.266Z,998.0335599360001
2023-02-11T05:05:31.232Z,998.0335599360001
2023-02-11T05:06:31.213Z,998.2367426640001
2023-02-11T05:07:31.250Z,998.2367426640001
2023-02-11T05:08:31.381Z,998.1351513
2023-02-11T05:09:31.228Z,998.1351513
2023-02-11T05:10:31.197Z,998.1351513
2023-02-11T05:11:31.236Z,997.9319685720001
2023-02-11T05:12:31.202Z,998.2367426640001
2023-02-11T05:13:31.223Z,998.2367426640001
2023-02-11T05:14:31.230Z,998.2367426640001
2023-02-11T05:15:31.248Z,998.507652968
2023-02-11T05:16:31.269Z,998.3383340280001
2023-02-11T05:17:31.211Z,998.3383340280001
2023-02-11T05:18:31.191Z,998.2367426640001
2023-02-11T05:19:31.254Z,998.3383340280001
2023-02-11T05:20:31.252Z,998.2367426640001
2023-02-11T05:21:31.202Z,998.439925392
2023-02-11T05:22:31.228Z,998.507652968
2023-02-11T05:23:31.233Z,998.507652968
2023-02-11T05:24:31.239Z,998.439925392
2023-02-11T05:25:31.225Z,998.6092443319999
2023-02-11T05:26:31.199Z,998.81242706
2023-02-11T05:27:31.215Z,998.9140184240001
2023-02-11T05:28:31.305Z,998.710835696
2023-02-11T05:29:31.200Z,998.9140184240001
2023-02-11T05:30:31.279Z,998.9140184240001
2023-02-11T05:31:31.210Z,998.81242706
2023-02-11T05:32:31.226Z,998.81242706
2023-02-11T05:33:31.224Z,999.117201152
2023-02-11T05:34:31.215Z,998.6092443319999
2023-02-11T05:35:31.194Z,999.015609788
2023-02-11T05:36:33.321Z,999.015609788
2023-02-11T05:37:31.304Z,998.9140184240001
2023-02-11T05:38:31.235Z,999.117201152
2023-02-11T05:39:31.229Z,999.015609788
2023-02-11T05:40:31.244Z,999.117201152
2023-02-11T05:41:31.217Z,999.117201152
2023-02-11T05:42:31.292Z,999.015609788
2023-02-11T05:43:31.193Z,999.32038388
2023-02-11T05:44:31.207Z,999.32038388
2023-02-11T05:45:31.243Z,999.421975244
2023-02-11T05:46:31.299Z,999.2187925160001
2023-02-11T05:47:31.193Z,999.015609788
2023-02-11T05:48:31.224Z,999.2187925160001
2023-02-11T05:49:31.206Z,999.32038388
2023-02-11T05:50:31.242Z,999.32038388
2023-02-11T05:51:31.399Z,999.117201152
2023-02-11T05:52:31.210Z,999.32038388
2023-02-11T05:53:31.200Z,999.421975244
2023-02-11T05:54:31.195Z,999.523566608
2023-02-11T05:55:31.259Z,999.421975244
2023-02-11T05:56:31.238Z,999.523566608
2023-02-11T05:57:31.203Z,999.7267493359999
2023-02-11T05:58:31.207Z,999.7267493359999
2023-02-11T05:59:31.199Z,999.6251579719999
2023-02-11T06:00:31.260Z,999.8283407
2023-02-11T06:01:31.242Z,999.9299320639999
2023-02-11T06:02:31.395Z,999.8283407
2023-02-11T06:03:31.254Z,999.9299320639999
2023-02-11T06:04:31.236Z,999.9299320639999
2023-02-11T06:05:31.258Z,999.9299320639999
2023-02-11T06:06:31.217Z,999.9299320639999
2023-02-11T06:07:31.200Z,1000.0315234279999
2023-02-11T06:08:31.236Z,999.9299320639999
2023-02-11T06:09:31.260Z,1000.0315234279999
2023-02-11T06:10:31.232Z,999.9299320639999
2023-02-11T06:11:31.198Z,1000.133114792
2023-02-11T06:12:31.214Z,1000.0315234279999
2023-02-11T06:13:31.201Z,1000.2347061559999
2023-02-11T06:14:31.222Z,1000.133114792
2023-02-11T06:15:31.189Z,1000.437888884
2023-02-11T06:16:31.316Z,1000.0315234279999
2023-02-11T06:17:31.206Z,1000.3362975199999
2023-02-11T06:18:31.227Z,1000.2347061559999
2023-02-11T06:19:31.231Z,1000.3362975199999
2023-02-11T06:20:31.286Z,1000.2347061559999
2023-02-11T06:21:42.883Z,1000.3362975199999
2023-02-11T06:22:31.216Z,1000.437888884
2023-02-11T06:23:31.218Z,1000.437888884
2023-02-11T06:24:54.753Z,1000.6072078239999
2023-02-11T06:25:31.261Z,1000.708799188
2023-02-11T06:26:31.191Z,1000.6072078239999
2023-02-11T06:27:31.256Z,1000.708799188
2023-02-11T06:28:31.328Z,1000.539480248
2023-02-11T06:29:31.203Z,1000.2347061559999
2023-02-11T06:30:31.201Z,1000.8103905519998
2023-02-11T06:31:31.343Z,1000.539480248
2023-02-11T06:32:43.396Z,1000.708799188
2023-02-11T06:33:31.236Z,1000.539480248
2023-02-11T06:34:31.186Z,1000.6072078239999
2023-02-11T06:35:31.305Z,1000.8103905519998
2023-02-11T06:36:31.213Z,1000.8103905519998
2023-02-11T06:37:31.293Z,1000.8103905519998
2023-02-11T06:38:31.189Z,1000.911981916
2023-02-11T06:39:31.221Z,1000.8103905519998
2023-02-11T06:40:31.219Z,1000.6072078239999
2023-02-11T06:41:31.208Z,1000.8103905519998
2023-02-11T06:42:31.367Z,1000.8103905519998
2023-02-11T06:43:31.251Z,1000.911981916
2023-02-11T06:44:31.202Z,1000.8103905519998
2023-02-11T06:45:31.211Z,1000.8103905519998
2023-02-11T06:46:31.292Z,1000.8103905519998
2023-02-11T06:47:31.274Z,1001.01357328
2023-02-11T06:48:31.200Z,1001.01357328
2023-02-11T06:49:31.194Z,1001.1151646439998
2023-02-11T06:50:31.196Z,1001.01357328
2023-02-11T06:51:31.241Z,1001.01357328
2023-02-11T06:52:31.222Z,1001.01357328
2023-02-11T06:53:31.200Z,1001.01357328
2023-02-11T06:54:31.176Z,1001.1151646439998
2023-02-11T06:55:31.296Z,1001.216756008
2023-02-11T06:56:31.208Z,1001.01357328
2023-02-11T06:57:31.268Z,1001.216756008
2023-02-11T06:58:31.214Z,1001.318347372
2023-02-11T06:59:31.275Z,1001.318347372
2023-02-11T07:00:31.268Z,1001.318347372
2023-02-11T07:01:31.248Z,1001.419938736
2023-02-11T07:02:31.314Z,1001.318347372
2023-02-11T07:03:31.230Z,1001.318347372
2023-02-11T07:04:31.213Z,1001.318347372
2023-02-11T07:05:31.213Z,1001.419938736
2023-02-11T07:06:31.230Z,1001.5215301
2023-02-11T07:07:33.913Z,1001.724712828
2023-02-11T07:08:31.208Z,1001.623121464
2023-02-11T07:09:31.228Z,1002.0294869200001
2023-02-11T07:10:31.218Z,1002.0294869200001
2023-02-11T07:11:31.212Z,1001.927895556
2023-02-11T07:12:31.181Z,1002.0294869200001
2023-02-11T07:13:31.199Z,1002.0294869200001
2023-02-11T07:14:31.182Z,1001.927895556
2023-02-11T07:15:31.231Z,1002.232669648
2023-02-11T07:16:31.245Z,1002.435852376
2023-02-11T07:17:31.223Z,1002.435852376
2023-02-11T07:18:31.204Z,1002.232669648
2023-02-11T07:19:31.212Z,1002.131078284
2023-02-11T07:20:31.229Z,1002.435852376
2023-02-11T07:21:31.229Z,1002.131078284
2023-02-11T07:22:31.221Z,1002.435852376
2023-02-11T07:23:31.209Z,1002.3342610120001
2023-02-11T07:24:31.168Z,1002.232669648
2023-02-11T07:25:31.178Z,1002.3342610120001
2023-02-11T07:26:31.248Z,1002.5374437400001
2023-02-11T07:27:31.197Z,1002.435852376
2023-02-11T07:28:31.256Z,1002.9099454079999
2023-02-11T07:29:31.181Z,1002.5374437400001
2023-02-11T07:30:31.260Z,1002.6390351040001
2023-02-11T07:31:31.432Z,1002.70676268
2023-02-11T07:32:31.214Z,1002.70676268
2023-02-11T07:33:31.209Z,1002.70676268
2023-02-11T07:34:31.256Z,1002.70676268
2023-02-11T07:35:31.183Z,1002.5374437400001
2023-02-11T07:36:31.277Z,1002.808354044
2023-02-11T07:37:31.208Z,1002.6390351040001
2023-02-11T07:38:31.231Z,1002.808354044
2023-02-11T07:39:31.214Z,1003.011536772
2023-02-11T07:40:31.194Z,1002.808354044
2023-02-11T07:41:31.184Z,1003.011536772
2023-02-11T07:42:31.235Z,1002.9099454079999
2023-02-11T07:43:31.178Z,1003.011536772
2023-02-11T07:44:31.203Z,1002.9099454079999
2023-02-11T07:45:31.201Z,1002.9099454079999
2023-02-11T07:46:31.234Z,1002.808354044
2023-02-11T07:47:31.188Z,1003.011536772
2023-02-11T07:48:31.239Z,1003.011536772
2023-02-11T07:49:31.268Z,1003.113128136
2023-02-11T07:50:31.236Z,1003.011536772
2023-02-11T07:51:31.240Z,1003.2147194999999
2023-02-11T07:52:31.217Z,1002.9099454079999
2023-02-11T07:53:31.265Z,1002.5374437400001
2023-02-11T07:54:31.231Z,1002.5374437400001
2023-02-11T07:55:31.203Z,1002.70676268
2023-02-11T07:56:31.208Z,1002.9099454079999
2023-02-11T07:57:31.208Z,1003.011536772
2023-02-11T07:58:31.244Z,1002.9099454079999
2023-02-11T07:59:31.181Z,1003.011536772
2023-02-11T08:00:31.258Z,1003.011536772
2023-02-11T08:01:31.226Z,1003.72267632
2023-02-11T08:02:31.269Z,1003.621084956
2023-02-11T08:03:31.263Z,1003.72267632
2023-02-11T08:04:31.208Z,1003.8242676840001
2023-02-11T08:05:31.209Z,1003.72267632
2023-02-11T08:06:31.214Z,1003.8242676840001
2023-02-11T08:07:31.189Z,1003.72267632
2023-02-11T08:08:31.192Z,1003.925859048
2023-02-11T08:09:33.452Z,1003.925859048
2023-02-11T08:10:31.208Z,1004.23063314
2023-02-11T08:11:31.181Z,1003.925859048
2023-02-11T08:12:31.214Z,1004.027450412
2023-02-11T08:13:31.187Z,1004.027450412
2023-02-11T08:14:31.264Z,1004.027450412
2023-02-11T08:15:31.191Z,1004.1290417760001
2023-02-11T08:16:31.338Z,1004.1290417760001
2023-02-11T08:17:31.176Z,1004.1290417760001
2023-02-11T08:18:31.282Z,1004.332224504
2023-02-11T08:19:33.456Z,1004.4338158680001
2023-02-11T08:20:31.207Z,1004.8401813239999
2023-02-11T08:21:31.200Z,1004.636998596
2023-02-11T08:22:31.231Z,1004.4338158680001
2023-02-11T08:23:31.210Z,1004.4338158680001
2023-02-11T08:24:31.215Z,1004.535407232
2023-02-11T08:25:31.245Z,1004.23063314
2023-02-11T08:26:31.214Z,1004.636998596
2023-02-11T08:27:31.203Z,1004.636998596
2023-02-11T08:28:31.238Z,1004.636998596
2023-02-11T08:29:31.205Z,1004.7385899600001
2023-02-11T08:30:31.238Z,1004.636998596
2023-02-11T08:31:31.416Z,1004.636998596
2023-02-11T08:32:31.208Z,1004.7385899600001
2023-02-11T08:33:31.227Z,1004.8401813239999
2023-02-11T08:34:31.235Z,1005.0095002639999
2023-02-11T08:35:31.211Z,1004.8401813239999
2023-02-11T08:36:31.187Z,1004.8401813239999
2023-02-11T08:37:33.074Z,1005.0095002639999
2023-02-11T08:38:31.202Z,1004.7385899600001
2023-02-11T08:39:31.164Z,1004.7385899600001
2023-02-11T08:40:31.285Z,1005.212682992
2023-02-11T08:41:31.211Z,1005.0095002639999
2023-02-11T08:42:31.243Z,1005.1110916279999
2023-02-11T08:43:31.194Z,1005.1110916279999
2023-02-11T08:44:31.193Z,1005.314274356
2023-02-11T08:45:31.271Z,1005.1110916279999
2023-02-11T08:46:31.372Z,1005.314274356
2023-02-11T08:47:31.225Z,1005.41586572
2023-02-11T08:48:31.201Z,1005.5174570840001
2023-02-11T08:49:31.203Z,1005.5174570840001
2023-02-11T08:50:31.215Z,1005.5174570840001
2023-02-11T08:51:31.274Z,1005.6190484480001
2023-02-11T08:52:31.193Z,1005.6190484480001
2023-02-11T08:53:31.187Z,1005.8222311760001
2023-02-11T08:54:31.216Z,1005.6190484480001
2023-02-11T08:55:31.183Z,1005.8222311760001
2023-02-11T08:56:31.176Z,1005.7206398120001
2023-02-11T08:57:31.176Z,1005.8222311760001
2023-02-11T08:58:31.221Z,1005.8222311760001
2023-02-11T08:59:31.213Z,1005.92382254
2023-02-11T09:00:31.204Z,1005.92382254
2023-02-11T09:01:31.330Z,1006.127005268
2023-02-11T09:02:31.300Z,1006.43177936
2023-02-11T09:03:31.227Z,1006.228596632
2023-02-11T09:04:31.185Z,1006.127005268
2023-02-11T09:05:31.201Z,1006.43177936
2023-02-11T09:06:31.257Z,1006.43177936
2023-02-11T09:07:31.263Z,1006.43177936
2023-02-11T09:08:31.168Z,1006.228596632
2023-02-11T09:09:31.196Z,1006.43177936
2023-02-11T09:10:31.214Z,1006.3301879959998
2023-02-11T09:11:31.220Z,1006.533370724
2023-02-11T09:12:31.212Z,1006.6349620879998
2023-02-11T09:13:31.221Z,1006.6349620879998
2023-02-11T09:14:31.186Z,1006.736553452
2023-02-11T09:15:31.310Z,1006.736553452
2023-02-11T09:16:31.277Z,1006.6349620879998
2023-02-11T09:17:31.198Z,1006.6349620879998
2023-02-11T09:18:31.210Z,1007.0074637559999
2023-02-11T09:19:31.190Z,1006.838144816
2023-02-11T09:20:31.193Z,1006.9397361800001
2023-02-11T09:21:31.248Z,1006.9397361800001
2023-02-11T09:22:31.239Z,1007.10905512
2023-02-11T09:23:31.162Z,1007.10905512
2023-02-11T09:24:31.240Z,1007.2106464839999
2023-02-11T09:25:31.216Z,1007.10905512
2023-02-11T09:26:31.215Z,1007.2106464839999
2023-02-11T09:27:31.203Z,1007.413829212
2023-02-11T09:28:31.256Z,1007.413829212
2023-02-11T09:29:31.193Z,1007.413829212
2023-02-11T09:30:31.290Z,1007.2106464839999
2023-02-11T09:31:31.741Z,1007.413829212
2023-02-11T09:32:31.211Z,1007.2106464839999
2023-02-11T09:33:31.178Z,1007.413829212
2023-02-11T09:34:32.142Z,1007.718603304
2023-02-11T09:35:36.004Z,1007.6170119399999
2023-02-11T09:36:40.046Z,1007.718603304
2023-02-11T09:37:43.960Z,1007.8201946679999
2023-02-11T09:38:47.990Z,1007.8201946679999
2023-02-11T09:39:51.974Z,1007.5154205759999
2023-02-11T09:40:56.002Z,1008.023377396
2023-02-11T09:41:59.953Z,1007.718603304
2023-02-11T09:43:04.243Z,1007.6170119399999
2023-02-11T09:44:08.000Z,1008.226560124
2023-02-11T09:45:11.978Z,1008.023377396
2023-02-11T09:46:16.096Z,1008.226560124
2023-02-11T09:47:19.984Z,1008.328151488